Time;durP1;ratioP1;P1;durP2;ratioP2;P2;SDS_P1;SDS_P2;PMS_P1;PMS_P2;Temp;Humidity;BMP_temperature;BMP_pressure;BME280_temperature;BME280_humidity;BME280_pressure;Samples;Min_cycle;Max_cycle;Signal;HPM_P1;HPM_P2
2024/01/20 00:01:20;;;;;;;17.45;8.50;;;0.20;99.90;;;;;;5013144;28;20634;-71
2024/01/20 00:03:45;;;;;;;20.98;7.88;;;0.10;99.90;;;;;;5021769;28;20061;-74
2024/01/20 00:06:11;;;;;;;19.55;8.63;;;0.10;99.90;;;;;;5016523;28;20079;-71
2024/01/20 00:08:37;;;;;;;19.90;9.15;;;0.10;99.90;;;;;;5018707;28;20033;-72
2024/01/20 00:11:02;;;;;;;26.52;8.80;;;0.10;99.90;;;;;;5017795;28;20022;-71
2024/01/20 00:13:28;;;;;;;23.35;9.60;;;0.10;99.90;;;;;;5017530;28;20076;-71
2024/01/20 00:15:53;;;;;;;21.77;8.88;;;0.00;99.90;;;;;;5014610;28;20030;-71
2024/01/20 00:18:19;;;;;;;19.85;9.35;;;0.00;99.90;;;;;;5014813;28;20038;-72
2024/01/20 00:20:45;;;;;;;23.02;9.90;;;0.00;99.90;;;;;;5015478;28;20077;-71
2024/01/20 00:23:12;;;;;;;20.10;8.57;;;0.00;99.90;;;;;;5019258;28;20038;-72
2024/01/20 00:25:37;;;;;;;20.38;8.30;;;0.00;99.90;;;;;;5012899;28;20588;-71
2024/01/20 00:28:03;;;;;;;25.27;11.15;;;0.00;99.90;;;;;;5016749;28;20037;-72
2024/01/20 00:30:29;;;;;;;20.88;8.10;;;0.00;99.90;;;;;;5014687;28;20030;-71
2024/01/20 00:32:55;;;;;;;22.70;10.20;;;0.00;99.90;;;;;;5012405;28;20048;-72
2024/01/20 00:35:20;;;;;;;22.02;8.65;;;0.00;99.90;;;;;;5012242;28;20037;-71
2024/01/20 00:37:46;;;;;;;23.70;9.18;;;-0.10;99.90;;;;;;5010069;28;20149;-73
2024/01/20 00:40:12;;;;;;;22.52;8.85;;;-0.10;99.90;;;;;;5019534;28;20057;-71
2024/01/20 00:42:37;;;;;;;29.98;10.82;;;-0.10;99.90;;;;;;5013345;28;20045;-73
2024/01/20 00:45:07;;;;;;;22.48;10.40;;;0.00;99.90;;;;;;5014113;28;20045;-73
2024/01/20 00:47:33;;;;;;;30.98;12.00;;;-0.10;99.90;;;;;;5014641;28;20030;-72
2024/01/20 00:50:00;;;;;;;25.30;9.73;;;-0.10;99.90;;;;;;5017078;28;20549;-72
2024/01/20 00:52:25;;;;;;;22.85;9.10;;;-0.10;99.90;;;;;;5014310;28;20072;-71
2024/01/20 00:54:51;;;;;;;25.60;8.48;;;-0.10;99.90;;;;;;5014754;28;20060;-72
2024/01/20 00:57:17;;;;;;;22.38;8.75;;;-0.10;99.90;;;;;;5015949;28;20041;-71
2024/01/20 00:59:45;;;;;;;20.60;9.18;;;-0.10;99.90;;;;;;5011898;28;20037;-71
2024/01/20 01:02:11;;;;;;;28.15;9.68;;;-0.10;99.90;;;;;;5018004;28;21001;-71
2024/01/20 01:04:36;;;;;;;28.20;9.43;;;-0.20;99.90;;;;;;5012843;28;20652;-71
2024/01/20 01:07:02;;;;;;;29.45;8.90;;;-0.20;99.90;;;;;;5016951;28;20026;-71
2024/01/20 01:09:28;;;;;;;23.63;8.25;;;-0.10;99.90;;;;;;5014099;28;20506;-71
2024/01/20 01:11:54;;;;;;;25.00;9.30;;;-0.20;99.90;;;;;;5009667;28;20093;-71
2024/01/20 01:14:19;;;;;;;23.50;8.32;;;-0.20;99.90;;;;;;5014742;28;20076;-71
2024/01/20 01:16:46;;;;;;;25.42;10.00;;;-0.30;99.90;;;;;;5014768;28;20038;-71
2024/01/20 01:19:11;;;;;;;22.67;8.82;;;-0.30;99.90;;;;;;5015352;28;20030;-71
2024/01/20 01:21:37;;;;;;;28.67;9.38;;;-0.30;99.90;;;;;;5012438;28;20056;-72
2024/01/20 01:24:03;;;;;;;30.65;9.95;;;-0.40;99.90;;;;;;5011069;28;20037;-71
2024/01/20 01:26:28;;;;;;;28.67;9.88;;;-0.40;99.90;;;;;;5009433;28;20086;-71
2024/01/20 01:28:54;;;;;;;27.95;8.55;;;-0.40;99.90;;;;;;5015717;28;20079;-71
2024/01/20 01:31:19;;;;;;;28.52;9.45;;;-0.40;99.90;;;;;;5017349;28;20498;-71
2024/01/20 01:33:45;;;;;;;30.48;9.98;;;-0.40;99.90;;;;;;5018571;28;20892;-71
2024/01/20 01:36:10;;;;;;;28.55;9.75;;;-0.50;99.90;;;;;;5019140;28;20498;-72
2024/01/20 01:38:36;;;;;;;28.17;10.05;;;-0.50;99.90;;;;;;5017167;28;20049;-71
2024/01/20 01:41:02;;;;;;;32.00;11.80;;;-0.50;99.90;;;;;;5015226;28;20465;-71
2024/01/20 01:43:27;;;;;;;32.33;10.43;;;-0.50;99.90;;;;;;5015457;28;20041;-71
2024/01/20 01:45:53;;;;;;;27.92;10.30;;;-0.50;99.90;;;;;;5011727;28;20040;-72
2024/01/20 01:48:19;;;;;;;29.88;10.80;;;-0.50;99.90;;;;;;5018962;28;20037;-71
2024/01/20 01:50:45;;;;;;;25.95;10.38;;;-0.50;99.90;;;;;;5020527;28;20402;-71
2024/01/20 01:53:12;;;;;;;32.58;11.57;;;-0.60;99.90;;;;;;5012563;28;20481;-71
2024/01/20 01:55:38;;;;;;;29.98;10.10;;;-0.50;99.90;;;;;;5020750;28;20025;-71
2024/01/20 01:58:05;;;;;;;30.55;10.85;;;-0.50;99.90;;;;;;5014169;28;20100;-71
2024/01/20 02:00:31;;;;;;;31.75;11.90;;;-0.60;99.90;;;;;;5012207;28;20477;-72
2024/01/20 02:02:56;;;;;;;26.73;10.63;;;-0.60;99.90;;;;;;5011895;28;20092;-72
2024/01/20 02:05:22;;;;;;;35.05;11.32;;;-0.60;99.90;;;;;;5013937;28;20383;-72
2024/01/20 02:07:49;;;;;;;30.13;12.15;;;-0.60;99.90;;;;;;5022700;28;20067;-72
2024/01/20 02:10:18;;;;;;;29.17;11.10;;;-0.70;99.90;;;;;;5013446;28;20040;-71
2024/01/20 02:12:44;;;;;;;28.52;11.18;;;-0.70;99.90;;;;;;5014811;28;20577;-71
2024/01/20 02:15:10;;;;;;;28.40;10.80;;;-0.60;99.90;;;;;;5014216;28;20038;-73
2024/01/20 02:17:36;;;;;;;32.25;11.23;;;-0.70;99.90;;;;;;5016508;28;20038;-72
2024/01/20 02:20:02;;;;;;;32.08;11.13;;;-0.70;99.90;;;;;;5015009;28;20036;-72
2024/01/20 02:22:28;;;;;;;31.55;11.52;;;-0.60;99.90;;;;;;5010303;28;20572;-72
2024/01/20 02:24:53;;;;;;;32.75;11.65;;;-0.70;99.90;;;;;;5020096;28;20039;-73
2024/01/20 02:27:19;;;;;;;30.77;11.05;;;-0.70;99.90;;;;;;5011607;28;20034;-73
2024/01/20 02:29:45;;;;;;;32.00;11.00;;;-0.70;99.90;;;;;;5019699;28;20038;-74
2024/01/20 02:32:11;;;;;;;27.40;10.90;;;-0.70;99.90;;;;;;5013997;28;20095;-73
2024/01/20 02:34:39;;;;;;;30.65;10.82;;;-0.70;99.90;;;;;;5018297;28;20048;-73
2024/01/20 02:37:07;;;;;;;31.40;11.57;;;-0.70;99.90;;;;;;5017261;28;20497;-72
2024/01/20 02:39:33;;;;;;;29.50;11.27;;;-0.60;99.90;;;;;;5016624;28;21248;-71
2024/01/20 02:41:58;;;;;;;26.55;10.93;;;-0.70;99.90;;;;;;5016944;28;20064;-73
2024/01/20 02:44:24;;;;;;;27.00;9.52;;;-0.70;99.90;;;;;;5025579;28;20115;-73
2024/01/20 02:46:52;;;;;;;27.08;10.73;;;-0.70;99.90;;;;;;5011283;28;20033;-72
2024/01/20 02:49:17;;;;;;;32.40;11.65;;;-0.70;99.90;;;;;;5023968;28;20084;-73
2024/01/20 02:51:43;;;;;;;28.02;10.55;;;-0.80;99.90;;;;;;5016261;28;20494;-73
2024/01/20 02:54:08;;;;;;;30.77;11.40;;;-0.80;99.90;;;;;;5019904;28;20084;-72
2024/01/20 02:56:34;;;;;;;31.90;11.00;;;-0.80;99.90;;;;;;5025506;28;20038;-71
2024/01/20 02:59:00;;;;;;;29.08;10.43;;;-0.80;99.90;;;;;;5012540;28;20026;-72
2024/01/20 03:01:25;;;;;;;30.23;10.60;;;-0.80;99.90;;;;;;5022126;28;20034;-72
2024/01/20 03:03:51;;;;;;;26.92;10.32;;;-0.80;99.90;;;;;;5022433;28;20034;-72
2024/01/20 03:06:16;;;;;;;26.25;10.13;;;-0.80;99.90;;;;;;5015453;28;20189;-72
2024/01/20 03:08:42;;;;;;;28.35;10.00;;;-0.80;99.90;;;;;;5024735;28;20041;-72
2024/01/20 03:11:07;;;;;;;30.35;10.90;;;-0.80;99.90;;;;;;5027107;28;20033;-72
2024/01/20 03:13:33;;;;;;;37.92;13.30;;;-0.80;99.90;;;;;;5016965;28;20709;-72
2024/01/20 03:15:58;;;;;;;30.90;10.93;;;-0.80;99.90;;;;;;5016378;28;20025;-72
2024/01/20 03:18:24;;;;;;;23.60;9.95;;;-0.80;99.90;;;;;;5019270;28;20041;-72
2024/01/20 03:20:49;;;;;;;36.08;13.80;;;-0.90;99.90;;;;;;5008403;28;20044;-73
2024/01/20 03:23:15;;;;;;;31.55;11.50;;;-0.90;99.90;;;;;;5023699;28;20482;-72
2024/01/20 03:25:40;;;;;;;27.23;10.75;;;-0.80;99.90;;;;;;5018087;28;20569;-72
2024/01/20 03:28:06;;;;;;;37.97;13.02;;;-0.80;99.90;;;;;;5015030;28;20048;-72
2024/01/20 03:30:31;;;;;;;26.98;9.93;;;-0.90;99.90;;;;;;5012830;28;20457;-72
2024/01/20 03:32:57;;;;;;;27.38;10.20;;;-0.90;99.90;;;;;;5016423;28;20037;-73
2024/01/20 03:35:23;;;;;;;27.10;9.93;;;-0.80;99.90;;;;;;5010447;28;20395;-72
2024/01/20 03:37:49;;;;;;;34.03;10.77;;;-0.80;99.90;;;;;;5022412;28;20056;-73
2024/01/20 03:40:14;;;;;;;24.98;9.25;;;-0.80;99.90;;;;;;5008936;28;20567;-72
2024/01/20 03:42:40;;;;;;;28.10;10.85;;;-0.80;99.90;;;;;;5017187;28;20133;-72
2024/01/20 03:45:06;;;;;;;27.75;10.10;;;-0.80;99.90;;;;;;5007966;28;20171;-71
2024/01/20 03:47:31;;;;;;;27.17;10.43;;;-0.80;99.90;;;;;;5018098;28;20080;-72
2024/01/20 03:49:57;;;;;;;27.67;9.32;;;-0.90;99.90;;;;;;5028249;28;20033;-72
2024/01/20 03:52:22;;;;;;;29.50;9.90;;;-0.90;99.90;;;;;;5013942;28;20037;-72
2024/01/20 03:54:48;;;;;;;28.83;10.57;;;-0.90;99.90;;;;;;5010992;28;20446;-72
2024/01/20 03:57:13;;;;;;;26.27;9.70;;;-0.90;99.90;;;;;;5015993;28;20064;-72
2024/01/20 03:59:39;;;;;;;28.20;9.82;;;-0.90;99.90;;;;;;5010438;28;20045;-72
2024/01/20 04:02:04;;;;;;;29.83;11.10;;;-0.90;99.90;;;;;;5012010;28;20041;-73
2024/01/20 04:04:31;;;;;;;27.45;9.10;;;-0.90;99.90;;;;;;5016717;28;20486;-73
2024/01/20 04:06:57;;;;;;;28.35;9.63;;;-0.90;99.90;;;;;;5020229;28;20075;-73
2024/01/20 04:09:22;;;;;;;23.77;8.23;;;-0.90;99.90;;;;;;5009515;28;20038;-72
2024/01/20 04:11:48;;;;;;;25.23;9.68;;;-0.90;99.90;;;;;;5022432;28;20125;-73
2024/01/20 04:14:13;;;;;;;26.33;9.13;;;-0.90;99.90;;;;;;5015495;28;20045;-72
2024/01/20 04:16:39;;;;;;;24.23;9.20;;;-0.90;99.90;;;;;;5015115;28;20034;-73
2024/01/20 04:19:04;;;;;;;28.15;10.15;;;-0.90;99.90;;;;;;5014482;28;20065;-73
2024/01/20 04:21:30;;;;;;;22.30;8.32;;;-0.90;99.90;;;;;;5011231;28;20026;-72
2024/01/20 04:23:56;;;;;;;27.67;9.95;;;-0.90;99.90;;;;;;5015300;28;20057;-72
2024/01/20 04:26:21;;;;;;;26.00;8.52;;;-0.90;99.90;;;;;;5021374;28;20049;-73
2024/01/20 04:28:47;;;;;;;29.48;9.82;;;-0.90;99.90;;;;;;5014460;28;20755;-73
2024/01/20 04:31:13;;;;;;;30.52;9.75;;;-0.80;99.90;;;;;;5021755;28;20068;-72
2024/01/20 04:33:39;;;;;;;25.52;9.13;;;-0.80;99.90;;;;;;5026185;28;20029;-72
2024/01/20 04:36:05;;;;;;;25.13;8.70;;;-0.90;99.90;;;;;;5024639;28;20439;-71
2024/01/20 04:38:31;;;;;;;23.13;8.68;;;-0.90;99.90;;;;;;5009870;28;20038;-72
2024/01/20 04:40:57;;;;;;;29.35;9.77;;;-0.90;99.90;;;;;;5023033;28;20066;-72
2024/01/20 04:43:22;;;;;;;26.50;9.18;;;-0.90;99.90;;;;;;5020138;28;20053;-72
2024/01/20 04:45:48;;;;;;;26.75;9.23;;;-0.90;99.90;;;;;;5015292;28;20438;-72
2024/01/20 04:48:13;;;;;;;25.40;8.98;;;-0.90;99.90;;;;;;5019157;28;20489;-72
2024/01/20 04:50:39;;;;;;;29.63;9.85;;;-0.90;99.90;;;;;;5024099;28;20715;-73
2024/01/20 04:53:05;;;;;;;26.13;9.52;;;-0.90;99.90;;;;;;5022087;28;20521;-74
2024/01/20 04:55:31;;;;;;;23.92;8.35;;;-0.90;99.90;;;;;;5020613;28;20120;-73
2024/01/20 04:57:56;;;;;;;20.95;9.00;;;-0.90;99.90;;;;;;5012408;28;20076;-73
2024/01/20 05:00:22;;;;;;;26.60;9.43;;;-0.90;99.90;;;;;;5005244;28;20045;-72
2024/01/20 05:02:47;;;;;;;26.50;9.20;;;-0.80;99.90;;;;;;5010427;28;20049;-72
2024/01/20 05:05:13;;;;;;;27.02;9.15;;;-0.80;99.90;;;;;;5020642;28;20033;-74
2024/01/20 05:07:38;;;;;;;22.25;8.63;;;-0.90;99.90;;;;;;5023428;28;20030;-73
2024/01/20 05:10:04;;;;;;;27.05;9.25;;;-0.80;99.90;;;;;;5015386;28;20034;-71
2024/01/20 05:12:30;;;;;;;23.48;9.10;;;-0.80;99.90;;;;;;5020691;28;20465;-72
2024/01/20 05:14:56;;;;;;;21.45;8.07;;;-0.80;99.90;;;;;;5011199;28;20080;-72
2024/01/20 05:17:21;;;;;;;24.95;10.20;;;-0.80;99.90;;;;;;5022353;28;20033;-72
2024/01/20 05:19:47;;;;;;;22.42;7.18;;;-0.80;99.90;;;;;;5009442;28;20030;-73
2024/01/20 05:22:13;;;;;;;30.30;11.15;;;-0.80;99.90;;;;;;5031218;28;20145;-72
2024/01/20 05:24:38;;;;;;;26.83;10.63;;;-0.80;99.90;;;;;;5010169;28;20034;-73
2024/01/20 05:27:04;;;;;;;26.00;9.00;;;-0.80;99.90;;;;;;5020652;28;20038;-73
2024/01/20 05:29:29;;;;;;;26.33;9.35;;;-0.90;99.90;;;;;;5018310;28;20030;-72
2024/01/20 05:31:55;;;;;;;25.98;9.40;;;-0.90;99.90;;;;;;5019968;28;20036;-72
2024/01/20 05:34:21;;;;;;;23.88;8.45;;;-0.80;99.90;;;;;;5020854;28;20049;-72
2024/01/20 05:36:47;;;;;;;31.08;10.15;;;-0.80;99.90;;;;;;5023712;28;20037;-74
2024/01/20 05:39:12;;;;;;;25.13;8.80;;;-0.80;99.90;;;;;;5017865;28;20117;-74
2024/01/20 05:41:38;;;;;;;26.80;8.90;;;-0.90;99.90;;;;;;5023132;28;20039;-73
2024/01/20 05:44:04;;;;;;;23.92;9.70;;;-0.90;99.90;;;;;;5015394;28;20069;-72
2024/01/20 05:46:29;;;;;;;24.65;7.95;;;-0.90;99.90;;;;;;5013255;28;20129;-72
2024/01/20 05:48:55;;;;;;;24.20;8.68;;;-0.80;99.90;;;;;;5013376;28;20029;-73
2024/01/20 05:51:20;;;;;;;25.85;8.32;;;-0.80;99.90;;;;;;5013356;28;20034;-72
2024/01/20 05:53:46;;;;;;;21.88;10.00;;;-0.80;99.90;;;;;;5022396;28;20083;-72
2024/01/20 05:56:12;;;;;;;28.92;9.27;;;-0.90;99.90;;;;;;5027357;28;20025;-72
2024/01/20 05:58:37;;;;;;;34.63;11.60;;;-0.80;99.90;;;;;;5018615;28;20136;-72
2024/01/20 06:01:03;;;;;;;23.83;9.20;;;-0.90;99.90;;;;;;5023007;28;20043;-72
2024/01/20 06:03:29;;;;;;;27.67;8.77;;;-0.90;99.90;;;;;;5022829;28;20079;-72
2024/01/20 06:05:55;;;;;;;26.10;9.93;;;-0.90;99.90;;;;;;5013901;28;20079;-73
2024/01/20 06:08:20;;;;;;;24.40;9.77;;;-0.90;99.90;;;;;;5021732;28;20045;-73
2024/01/20 06:10:46;;;;;;;28.05;9.02;;;-1.00;99.90;;;;;;5021770;28;20045;-72
2024/01/20 06:13:11;;;;;;;31.33;10.77;;;-1.00;99.90;;;;;;5012252;28;20120;-72
2024/01/20 06:15:37;;;;;;;34.83;10.38;;;-1.00;99.90;;;;;;5018094;28;20815;-72
2024/01/20 06:18:03;;;;;;;25.30;9.18;;;-1.00;99.90;;;;;;5017017;28;20041;-73
2024/01/20 06:20:28;;;;;;;31.50;9.15;;;-1.00;99.90;;;;;;5020203;28;20033;-72
2024/01/20 06:22:54;;;;;;;24.42;8.77;;;-1.00;99.90;;;;;;5015313;28;20549;-73
2024/01/20 06:25:20;;;;;;;27.33;10.07;;;-1.00;99.90;;;;;;5014884;28;20033;-72
2024/01/20 06:27:45;;;;;;;22.90;8.80;;;-0.90;99.90;;;;;;5012856;28;20494;-72
2024/01/20 06:30:11;;;;;;;22.13;9.07;;;-0.90;99.90;;;;;;5012648;28;20037;-73
2024/01/20 06:32:37;;;;;;;22.38;8.32;;;-0.90;99.90;;;;;;5020458;28;20038;-72
2024/01/20 06:35:03;;;;;;;29.48;9.02;;;-0.90;99.90;;;;;;5015764;28;20421;-72
2024/01/20 06:37:28;;;;;;;31.90;9.68;;;-0.90;99.90;;;;;;5011895;28;20046;-72
2024/01/20 06:39:54;;;;;;;27.73;9.20;;;-0.80;99.90;;;;;;5015127;28;20036;-73
2024/01/20 06:42:19;;;;;;;22.00;7.88;;;-0.80;99.90;;;;;;5025260;28;20086;-72
2024/01/20 06:44:45;;;;;;;26.17;10.38;;;-0.80;99.90;;;;;;5022872;28;20149;-72
2024/01/20 06:47:11;;;;;;;24.10;8.43;;;-0.80;99.90;;;;;;5023526;28;20564;-72
2024/01/20 06:49:40;;;;;;;30.70;9.27;;;-0.90;99.90;;;;;;5018216;28;20034;-72
2024/01/20 06:52:06;;;;;;;24.35;9.30;;;-0.90;99.90;;;;;;5023808;28;20399;-72
2024/01/20 06:54:31;;;;;;;29.70;10.02;;;-0.90;99.90;;;;;;5019359;28;20561;-72
2024/01/20 06:56:57;;;;;;;27.27;8.98;;;-0.90;99.90;;;;;;5016923;28;20611;-73
2024/01/20 06:59:22;;;;;;;27.38;9.00;;;-0.90;99.90;;;;;;5022757;28;20037;-73
2024/01/20 07:01:48;;;;;;;22.42;8.27;;;-0.90;99.90;;;;;;5020056;28;20029;-73
2024/01/20 07:04:14;;;;;;;24.80;8.27;;;-0.90;99.90;;;;;;5021485;28;20057;-72
2024/01/20 07:06:39;;;;;;;29.23;9.73;;;-0.90;99.90;;;;;;5029088;28;20037;-72
2024/01/20 07:09:05;;;;;;;24.20;8.32;;;-0.90;99.90;;;;;;5027263;28;20536;-72
2024/01/20 07:11:32;;;;;;;25.33;8.98;;;-1.00;99.90;;;;;;5021496;28;20021;-72
2024/01/20 07:13:57;;;;;;;29.80;9.85;;;-1.00;99.90;;;;;;5021580;28;20048;-72
2024/01/20 07:16:23;;;;;;;28.98;8.90;;;-0.90;99.90;;;;;;5022756;28;20034;-72
2024/01/20 07:18:49;;;;;;;22.15;8.95;;;-1.00;99.90;;;;;;5016212;28;20033;-73
2024/01/20 07:21:14;;;;;;;26.80;9.55;;;-1.00;99.90;;;;;;5022105;28;20489;-71
2024/01/20 07:23:40;;;;;;;34.33;10.18;;;-0.90;99.90;;;;;;5017002;28;20498;-73
2024/01/20 07:26:06;;;;;;;28.52;9.07;;;-0.90;99.90;;;;;;5008690;28;20030;-71
2024/01/20 07:28:31;;;;;;;25.35;8.57;;;-0.90;99.90;;;;;;5023772;28;20025;-71
2024/01/20 07:30:57;;;;;;;27.98;8.77;;;-0.90;99.90;;;;;;5013634;28;20038;-74
2024/01/20 07:33:22;;;;;;;28.80;9.63;;;-0.90;99.90;;;;;;5021054;28;20033;-72
2024/01/20 07:35:48;;;;;;;25.20;9.07;;;-0.90;99.90;;;;;;5019171;28;20033;-73
2024/01/20 07:38:14;;;;;;;29.02;9.48;;;-0.90;99.90;;;;;;5029779;28;20494;-72
2024/01/20 07:40:39;;;;;;;25.13;7.93;;;-0.90;99.90;;;;;;5012966;28;20033;-72
2024/01/20 07:43:05;;;;;;;26.10;9.38;;;-0.90;99.90;;;;;;5027535;28;20033;-73
2024/01/20 07:45:31;;;;;;;29.50;8.45;;;-0.90;99.90;;;;;;5021454;28;20368;-72
2024/01/20 07:47:58;;;;;;;29.95;8.43;;;-0.90;99.90;;;;;;5017397;28;20075;-72
2024/01/20 07:50:23;;;;;;;23.63;8.75;;;-0.90;99.90;;;;;;5028462;28;20116;-72
2024/01/20 07:52:49;;;;;;;29.33;8.02;;;-0.80;99.90;;;;;;5028202;28;20152;-72
2024/01/20 07:55:15;;;;;;;27.08;8.80;;;-0.80;99.90;;;;;;5033266;28;20040;-72
2024/01/20 07:57:40;;;;;;;26.70;8.85;;;-0.80;99.90;;;;;;5032935;28;20136;-72
2024/01/20 08:00:08;;;;;;;25.17;9.15;;;-0.70;99.90;;;;;;5013084;28;20148;-71
2024/01/20 08:02:33;;;;;;;29.70;9.85;;;-0.70;99.90;;;;;;5020943;28;20033;-71
2024/01/20 08:04:59;;;;;;;33.45;8.77;;;-0.70;99.90;;;;;;5015481;28;20030;-71
2024/01/20 08:07:25;;;;;;;27.02;10.25;;;-0.60;99.90;;;;;;5028218;28;20374;-72
2024/01/20 08:09:50;;;;;;;26.63;9.98;;;-0.50;99.90;;;;;;5025475;28;20044;-73
2024/01/20 08:12:16;;;;;;;24.35;9.77;;;-0.50;99.90;;;;;;5023147;28;20025;-71
2024/01/20 08:14:41;;;;;;;38.42;11.00;;;-0.50;99.90;;;;;;5037128;28;20037;-72
2024/01/20 08:17:07;;;;;;;27.63;10.63;;;-0.40;99.90;;;;;;5025430;28;20041;-71
2024/01/20 08:19:32;;;;;;;32.20;10.38;;;-0.40;99.90;;;;;;5026551;28;20033;-72
2024/01/20 08:21:58;;;;;;;27.63;8.40;;;-0.30;99.90;;;;;;5025322;28;20037;-72
2024/01/20 08:24:23;;;;;;;31.65;10.57;;;-0.30;99.90;;;;;;5006960;28;20057;-72
2024/01/20 08:26:49;;;;;;;26.02;9.60;;;-0.20;99.90;;;;;;5015873;28;20041;-72
2024/01/20 08:29:14;;;;;;;27.77;10.05;;;-0.20;99.90;;;;;;5026023;28;20033;-77
2024/01/20 08:31:40;;;;;;;27.98;10.35;;;-0.10;99.90;;;;;;5020581;28;20683;-72
2024/01/20 08:34:05;;;;;;;30.52;10.27;;;-0.10;99.90;;;;;;5040194;28;20026;-72
2024/01/20 08:36:31;;;;;;;34.22;10.75;;;-0.10;99.90;;;;;;5025651;28;20022;-72
2024/01/20 08:38:56;;;;;;;25.15;10.05;;;-0.10;99.90;;;;;;5014884;28;20045;-72
2024/01/20 08:41:22;;;;;;;28.52;9.57;;;0.00;99.90;;;;;;5006613;28;20030;-72
2024/01/20 08:43:47;;;;;;;31.85;9.40;;;0.00;99.90;;;;;;5011341;28;20034;-72
2024/01/20 08:46:13;;;;;;;31.73;10.80;;;0.00;99.90;;;;;;5027358;28;20037;-72
2024/01/20 08:48:39;;;;;;;21.40;8.13;;;0.00;99.90;;;;;;5026684;28;20083;-72
2024/01/20 08:51:05;;;;;;;24.35;9.65;;;0.00;99.90;;;;;;5024223;28;20207;-73
2024/01/20 08:53:32;;;;;;;27.20;10.15;;;0.00;99.90;;;;;;5025728;28;20608;-73
2024/01/20 08:55:59;;;;;;;24.23;9.65;;;0.10;99.90;;;;;;5036251;28;20040;-73
2024/01/20 08:58:25;;;;;;;28.33;10.32;;;0.10;99.90;;;;;;5013831;28;20040;-73
2024/01/20 09:00:50;;;;;;;24.63;9.82;;;0.10;99.90;;;;;;5022989;28;20045;-72
2024/01/20 09:03:16;;;;;;;25.75;9.35;;;0.10;99.90;;;;;;5026887;28;20045;-72
2024/01/20 09:05:42;;;;;;;28.10;10.45;;;0.20;99.90;;;;;;5016640;28;20490;-74
2024/01/20 09:08:09;;;;;;;34.53;10.48;;;0.20;99.90;;;;;;5036904;28;20041;-71
2024/01/20 09:10:36;;;;;;;24.88;10.07;;;0.30;99.90;;;;;;5026013;28;20041;-72
2024/01/20 09:13:05;;;;;;;23.40;8.15;;;0.40;99.90;;;;;;5017383;28;20428;-72
2024/01/20 09:15:31;;;;;;;20.83;7.72;;;0.40;99.90;;;;;;5025949;28;20033;-72
2024/01/20 09:17:57;;;;;;;23.02;9.40;;;0.40;99.90;;;;;;5024230;28;20371;-72
2024/01/20 09:20:23;;;;;;;23.15;9.77;;;0.50;99.90;;;;;;5021969;28;20029;-73
2024/01/20 09:22:48;;;;;;;22.67;9.18;;;0.50;99.90;;;;;;5025674;28;20033;-74
2024/01/20 09:25:14;;;;;;;20.77;8.40;;;0.50;99.90;;;;;;5023960;28;20036;-73
2024/01/20 09:27:39;;;;;;;20.67;7.53;;;0.50;99.90;;;;;;5032064;28;20029;-72
2024/01/20 09:30:06;;;;;;;22.85;8.85;;;0.50;99.90;;;;;;5014568;28;20121;-73
2024/01/20 09:32:33;;;;;;;21.65;7.65;;;0.60;99.90;;;;;;5009322;28;20034;-72
2024/01/20 09:35:00;;;;;;;16.15;7.18;;;0.60;99.90;;;;;;5017700;28;20100;-72
2024/01/20 09:37:25;;;;;;;29.17;9.63;;;0.60;99.90;;;;;;5031735;28;20103;-72
2024/01/20 09:39:51;;;;;;;24.20;9.65;;;0.70;99.90;;;;;;5015799;28;20080;-72
2024/01/20 09:42:17;;;;;;;19.27;7.47;;;0.70;99.90;;;;;;5024574;28;20665;-72
2024/01/20 09:44:43;;;;;;;19.98;7.60;;;0.70;99.90;;;;;;5026741;28;20039;-72
2024/01/20 09:47:12;;;;;;;22.42;8.63;;;0.80;99.90;;;;;;5015183;28;20445;-73
2024/01/20 09:49:38;;;;;;;22.67;7.72;;;0.80;99.90;;;;;;5041431;28;20043;-72
2024/01/20 09:52:41;;;;;;;19.00;7.22;;;0.80;99.90;;;;;;5029491;28;20133;-74
2024/01/20 09:55:21;;;;;;;14.95;6.57;;;0.80;99.90;;;;;;5016525;28;20120;-72
2024/01/20 09:57:48;;;;;;;19.77;8.20;;;0.80;99.90;;;;;;5028656;28;20221;-71
2024/01/20 10:00:16;;;;;;;21.85;8.10;;;1.00;99.90;;;;;;5025749;28;20029;-72
2024/01/20 10:02:44;;;;;;;27.35;9.05;;;1.10;99.90;;;;;;5024855;28;20033;-71
2024/01/20 10:05:12;;;;;;;24.98;10.23;;;1.20;99.90;;;;;;5016231;28;20049;-72
2024/01/20 10:07:38;;;;;;;28.92;10.43;;;1.30;99.90;;;;;;5023165;28;20528;-72
2024/01/20 10:10:05;;;;;;;20.52;9.05;;;1.40;99.90;;;;;;5023767;28;20037;-72
2024/01/20 10:12:31;;;;;;;19.13;8.18;;;1.60;99.90;;;;;;5009672;28;20038;-72
2024/01/20 10:14:56;;;;;;;30.27;9.38;;;1.60;99.90;;;;;;5022401;28;20033;-72
2024/01/20 10:17:22;;;;;;;27.42;9.20;;;1.60;99.90;;;;;;5021714;28;20053;-72
2024/01/20 10:19:47;;;;;;;25.08;9.52;;;1.60;99.90;;;;;;5026075;28;20025;-73
2024/01/20 10:22:13;;;;;;;21.13;8.48;;;1.60;99.90;;;;;;5022981;28;20243;-72
2024/01/20 10:24:52;;;;;;;19.27;8.13;;;1.60;99.90;;;;;;5014931;28;20032;-73
2024/01/20 10:27:25;;;;;;;22.40;8.95;;;1.70;99.90;;;;;;5021440;28;20041;-71
2024/01/20 10:29:51;;;;;;;17.00;7.95;;;1.60;99.90;;;;;;5024692;28;20044;-72
2024/01/20 10:32:17;;;;;;;21.65;7.10;;;1.60;99.90;;;;;;5006579;28;20393;-71
2024/01/20 10:34:44;;;;;;;21.33;7.70;;;1.60;99.90;;;;;;5011487;28;20038;-72
2024/01/20 10:37:13;;;;;;;23.95;9.05;;;1.60;99.90;;;;;;5019255;28;20124;-71
2024/01/20 10:39:44;;;;;;;15.80;5.90;;;1.60;99.90;;;;;;5020067;28;20037;-72
2024/01/20 10:42:14;;;;;;;19.40;6.95;;;1.50;99.90;;;;;;5012795;28;20793;-72
2024/01/20 10:45:07;;;;;;;21.30;8.02;;;1.50;99.90;;;;;;5007157;28;20029;-72
2024/01/20 10:47:41;;;;;;;18.85;7.45;;;1.50;99.90;;;;;;5013382;28;20041;-72
2024/01/20 10:50:07;;;;;;;22.75;8.05;;;1.50;99.90;;;;;;5014228;28;20033;-72
2024/01/20 10:52:37;;;;;;;17.33;7.30;;;1.60;99.90;;;;;;5011308;28;20030;-73
2024/01/20 10:55:05;;;;;;;20.70;9.18;;;1.60;99.90;;;;;;5013430;28;20029;-72
2024/01/20 10:57:31;;;;;;;19.05;8.13;;;1.60;99.90;;;;;;5019994;28;20068;-72
2024/01/20 10:59:59;;;;;;;20.95;8.50;;;1.60;99.90;;;;;;5026879;28;20084;-72
2024/01/20 11:02:26;;;;;;;20.52;8.30;;;1.70;99.90;;;;;;5005640;28;20053;-72
2024/01/20 11:04:52;;;;;;;16.67;7.53;;;1.80;99.90;;;;;;5003631;28;20482;-72
2024/01/20 11:07:26;;;;;;;16.45;7.50;;;1.80;99.90;;;;;;5009898;28;20025;-72
2024/01/20 11:09:59;;;;;;;16.08;6.93;;;2.00;99.90;;;;;;5018871;28;20041;-72
2024/01/20 11:12:26;;;;;;;19.08;7.55;;;2.10;99.90;;;;;;5016460;28;20072;-72
2024/01/20 11:14:53;;;;;;;16.85;7.00;;;2.20;99.90;;;;;;5015364;28;20822;-71
2024/01/20 11:17:19;;;;;;;20.73;7.88;;;2.30;99.90;;;;;;5006514;28;20099;-72
2024/01/20 11:19:44;;;;;;;24.52;7.80;;;2.40;99.90;;;;;;5022586;28;20112;-71
2024/01/20 11:22:30;;;;;;;20.42;7.50;;;2.40;99.90;;;;;;5012962;28;20041;-71
2024/01/20 11:24:56;;;;;;;20.48;7.57;;;2.30;99.90;;;;;;5019824;28;20493;-71
2024/01/20 11:27:22;;;;;;;28.90;7.45;;;2.40;99.90;;;;;;5017080;28;20033;-71
2024/01/20 11:29:47;;;;;;;23.77;8.02;;;2.30;99.90;;;;;;5019898;28;20033;-73
2024/01/20 11:32:13;;;;;;;21.13;8.90;;;2.30;99.90;;;;;;5008048;28;20372;-72
2024/01/20 11:34:40;;;;;;;24.38;8.85;;;2.40;99.90;;;;;;5016092;28;20033;-72
2024/01/20 11:37:08;;;;;;;22.58;9.30;;;2.30;99.90;;;;;;5008285;28;20026;-72
2024/01/20 11:39:34;;;;;;;16.98;8.05;;;2.30;99.90;;;;;;5012845;28;20026;-71
2024/01/20 11:42:03;;;;;;;18.58;8.05;;;2.30;99.90;;;;;;5023905;28;20048;-71
2024/01/20 11:44:31;;;;;;;19.10;8.68;;;2.10;99.90;;;;;;5024417;28;20034;-71
2024/01/20 11:46:59;;;;;;;21.65;8.82;;;2.10;99.90;;;;;;5025677;28;20040;-71
2024/01/20 11:49:26;;;;;;;19.25;7.65;;;2.00;99.90;;;;;;5024808;28;20113;-71
2024/01/20 11:51:52;;;;;;;21.95;8.50;;;2.00;99.90;;;;;;5013905;28;20117;-71
2024/01/20 11:54:18;;;;;;;22.00;8.98;;;2.00;99.90;;;;;;5016778;28;20026;-71
2024/01/20 11:56:43;;;;;;;23.45;8.52;;;2.00;99.90;;;;;;5044557;28;20029;-73
2024/01/20 11:59:09;;;;;;;21.00;9.45;;;2.00;99.90;;;;;;5023201;28;20040;-71
2024/01/20 12:01:36;;;;;;;26.33;9.88;;;2.00;99.90;;;;;;5025547;28;20880;-71
2024/01/20 12:04:02;;;;;;;20.20;8.95;;;1.90;99.90;;;;;;5018266;28;20087;-71
2024/01/20 12:06:28;;;;;;;20.85;9.52;;;1.90;99.90;;;;;;5020914;28;20041;-72
2024/01/20 12:08:56;;;;;;;20.20;8.68;;;1.80;99.90;;;;;;5021694;28;20042;-72
2024/01/20 12:11:22;;;;;;;21.90;9.02;;;1.80;99.90;;;;;;5041699;28;20062;-72
2024/01/20 12:13:49;;;;;;;24.98;8.63;;;1.80;99.90;;;;;;5005862;28;20417;-72
2024/01/20 12:16:16;;;;;;;21.83;8.55;;;1.70;99.90;;;;;;5024478;28;20033;-72
2024/01/20 12:18:41;;;;;;;20.90;9.10;;;1.80;99.90;;;;;;5028698;28;20119;-71
2024/01/20 12:21:07;;;;;;;22.40;8.98;;;1.80;99.90;;;;;;5017413;28;21775;-71
2024/01/20 12:23:35;;;;;;;20.42;8.55;;;1.90;99.90;;;;;;5021913;28;20128;-71
2024/01/20 12:26:01;;;;;;;23.13;9.38;;;2.00;99.90;;;;;;5021988;28;20501;-71
2024/01/20 12:28:26;;;;;;;21.65;9.38;;;2.10;99.90;;;;;;5025139;28;20036;-72
2024/01/20 12:30:52;;;;;;;16.52;7.35;;;2.10;99.90;;;;;;5023444;28;20068;-71
2024/01/20 12:33:18;;;;;;;30.27;7.78;;;2.10;99.90;;;;;;5016868;28;20037;-71